Itasca, Texas
Current Conditions -  °F | °C
As of 3:35 PM on Friday 24 Oct 2014 (Local Time) from KINJ Reporting Station
Clear Clear  
Wind Chill: 83°   Ceiling: Unl
Heat Index: 83°   Visibility: 10mi
Dew Point: 58°   Wind: 3mph
Humidity: 43%   Direction: 190°S
Pressure: 30.1"   Gusts: NA
Location:  32.16°N, 97.15°W
Report Text: KINJ 242035Z AUTO 19003KT 10SM CLR 28/15 A3010 RMK AO2 T02810146
Loading
Personal Weather Stations






























Interactive Weather Map
Tropical Storm Tracking
New forecast layout! Learn more

10-Day Weather Forecast

Advertisements
Track Severe Weather on mobile